Time,TemperatureF,DewpointF,PressureIn,WindDirection,WindDirectionDegrees,WindSpeedMPH,WindSpeedGustMPH,Humidity,HourlyPrecipIn,Conditions,Clouds,dailyrainin,SoftwareType,DateUTC
2013-04-08 00:00:00,58.9,45.9,30.06,South,171,13.8,13.8,62,0.00,CLR,,0.00,WeatherDisplay:10.37,2013-04-08 04:00:00,
2013-04-08 00:01:00,59.0,46.0,30.06,SSW,196,15.0,15.0,62,0.00,CLR,,0.00,WeatherDisplay:10.37,2013-04-08 04:01:00,
2013-04-08 00:06:00,59.1,46.1,30.06,SSW,194,14.2,14.2,62,0.00,CLR,,0.00,WeatherDisplay:10.37,2013-04-08 04:06:00,
2013-04-08 00:11:00,59.2,46.2,30.06,SSW,200,5.8,5.8,62,0.00,CLR,,0.00,WeatherDisplay:10.37,2013-04-08 04:11:00,
2013-04-08 00:16:00,59.2,45.8,30.06,SSE,156,8.1,8.1,61,0.00,CLR,,0.00,WeatherDisplay:10.37,2013-04-08 04:16:00,
2013-04-08 00:21:00,59.3,46.3,30.06,South,191,9.2,9.2,62,0.00,CLR,,0.00,WeatherDisplay:10.37,2013-04-08 04:21:00,
2013-04-08 00:26:00,59.0,46.0,30.06,SSE,160,9.2,9.2,62,0.00,CLR,,0.00,WeatherDisplay:10.37,2013-04-08 04:26:00,
2013-04-08 00:31:00,58.8,45.8,30.06,SSW,196,10.4,10.4,62,0.00,CLR,,0.00,WeatherDisplay:10.37,2013-04-08 04:31:00,
2013-04-08 00:36:00,58.6,45.6,30.06,South,170,11.5,11.5,62,0.00,CLR,,0.00,WeatherDisplay:10.37,2013-04-08 04:36:00,
2013-04-08 00:41:00,58.2,46.1,30.06,South,177,16.1,16.1,64,0.00,CLR,,0.00,WeatherDisplay:10.37,2013-04-08 04:41:00,
2013-04-08 00:46:00,57.9,45.8,30.06,SSW,198,8.7,8.7,64,0.00,CLR,,0.00,WeatherDisplay:10.37,2013-04-08 04:46:00,
2013-04-08 00:51:00,57.6,45.9,30.06,SSW,196,5.8,5.8,65,0.00,CLR,,0.00,WeatherDisplay:10.37,2013-04-08 04:51:00,
2013-04-08 00:56:00,57.2,45.5,30.05,SW,228,10.6,10.6,65,0.00,CLR,,0.00,WeatherDisplay:10.37,2013-04-08 04:56:00,
2013-04-08 01:01:00,56.6,45.8,30.05,SSW,198,6.9,6.9,67,0.00,CLR,,0.00,WeatherDisplay:10.37,2013-04-08 05:01:00,
2013-04-08 01:06:00,56.1,45.3,30.05,South,185,6.9,6.9,67,0.00,CLR,,0.00,WeatherDisplay:10.37,2013-04-08 05:06:00,
2013-04-08 01:11:00,55.9,45.5,30.05,South,179,4.6,4.6,68,0.00,CLR,,0.00,WeatherDisplay:10.37,2013-04-08 05:11:00,
2013-04-08 01:16:00,55.8,45.8,30.05,SSW,201,8.1,8.1,69,0.00,CLR,,0.00,WeatherDisplay:10.37,2013-04-08 05:16:00,
2013-04-08 01:21:00,55.7,45.3,30.05,NW,326,2.2,2.2,68,0.00,CLR,,0.00,WeatherDisplay:10.37,2013-04-08 05:21:00,
2013-04-08 01:26:00,55.3,44.9,30.05,South,185,2.3,2.3,68,0.00,CLR,,0.00,WeatherDisplay:10.37,2013-04-08 05:26:00,
2013-04-08 01:31:00,54.8,44.8,30.05,South,177,0.0,0.0,69,0.00,CLR,,0.00,WeatherDisplay:10.37,2013-04-08 05:31:00,
2013-04-08 01:36:00,54.5,44.9,30.05,North,356,4.6,4.6,70,0.00,CLR,,0.00,WeatherDisplay:10.37,2013-04-08 05:36:00,
2013-04-08 01:41:00,54.3,45.1,30.04,North,11,4.4,4.4,71,0.00,CLR,,0.00,WeatherDisplay:10.37,2013-04-08 05:41:00,
2013-04-08 01:46:00,54.2,44.6,30.04,NNE,23,3.3,3.3,70,0.00,CLR,,0.00,WeatherDisplay:10.37,2013-04-08 05:46:00,
2013-04-08 01:51:00,54.0,44.8,30.04,NNE,24,0.0,0.1,71,0.00,CLR,,0.00,WeatherDisplay:10.37,2013-04-08 05:51:00,
2013-04-08 01:56:00,53.8,45.0,30.04,East,101,0.0,0.0,72,0.00,CLR,,0.00,WeatherDisplay:10.37,2013-04-08 05:56:00,
2013-04-08 02:01:00,53.7,44.9,30.04,North,9,3.5,3.5,72,0.00,CLR,,0.00,WeatherDisplay:10.37,2013-04-08 06:01:00,
2013-04-08 02:06:00,53.5,44.7,30.04,North,10,0.0,0.0,72,0.00,CLR,,0.00,WeatherDisplay:10.37,2013-04-08 06:06:00,
2013-04-08 02:11:00,53.4,44.6,30.04,WNW,297,0.0,0.0,72,0.00,CLR,,0.00,WeatherDisplay:10.37,2013-04-08 06:11:00,
2013-04-08 02:16:00,53.2,44.8,30.03,NNE,15,4.6,0.0,73,0.00,CLR,,0.00,WeatherDisplay:10.37,2013-04-08 06:16:00,
2013-04-08 02:22:00,53.2,44.8,30.03,NE,37,5.4,5.4,73,0.00,CLR,,0.00,WeatherDisplay:10.37,2013-04-08 06:22:00,
2013-04-08 02:27:00,53.2,44.8,30.03,NE,35,3.5,3.5,73,0.00,CLR,,0.00,WeatherDisplay:10.37,2013-04-08 06:27:00,
2013-04-08 02:32:00,53.1,44.7,30.03,WSW,255,6.5,6.5,73,0.00,CLR,,0.00,WeatherDisplay:10.37,2013-04-08 06:32:00,
2013-04-08 02:37:00,53.1,45.0,30.03,WNW,288,1.2,0.0,74,0.00,CLR,,0.00,WeatherDisplay:10.37,2013-04-08 06:37:00,
2013-04-08 02:42:00,52.9,44.8,30.03,SSW,204,3.3,3.8,74,0.00,CLR,,0.00,WeatherDisplay:10.37,2013-04-08 06:42:00,
2013-04-08 02:47:00,52.8,44.7,30.03,SW,224,2.7,2.7,74,0.00,CLR,,0.00,WeatherDisplay:10.37,2013-04-08 06:47:00,
2013-04-08 02:52:00,52.8,45.1,30.03,SE,137,0.0,0.0,75,0.00,CLR,,0.00,WeatherDisplay:10.37,2013-04-08 06:52:00,
2013-04-08 02:57:00,52.9,45.2,30.03,NNE,22,3.5,3.5,75,0.00,CLR,,0.00,WeatherDisplay:10.37,2013-04-08 06:57:00,
2013-04-08 03:02:00,53.1,45.4,30.03,ENE,60,0.0,0.0,75,0.00,CLR,,0.00,WeatherDisplay:10.37,2013-04-08 07:02:00,
2013-04-08 03:07:00,53.2,45.5,30.03,ENE,60,1.2,0.0,75,0.00,CLR,,0.00,WeatherDisplay:10.37,2013-04-08 07:07:00,
2013-04-08 03:12:00,53.1,45.0,30.03,ENE,60,0.0,0.0,74,0.00,CLR,,0.00,WeatherDisplay:10.37,2013-04-08 07:12:00,
2013-04-08 03:17:00,52.9,44.8,30.03,ENE,60,1.2,1.2,74,0.00,CLR,,0.00,WeatherDisplay:10.37,2013-04-08 07:17:00,
2013-04-08 03:22:00,52.8,44.7,30.03,ENE,60,0.0,0.0,74,0.00,CLR,,0.00,WeatherDisplay:10.37,2013-04-08 07:22:00,
2013-04-08 03:27:00,52.6,44.9,30.03,ENE,60,0.0,0.0,75,0.00,CLR,,0.00,WeatherDisplay:10.37,2013-04-08 07:27:00,
2013-04-08 03:32:00,52.6,44.9,30.03,ENE,60,0.0,0.0,75,0.00,CLR,,0.00,WeatherDisplay:10.37,2013-04-08 07:32:00,
2013-04-08 03:37:00,52.6,45.2,30.03,East,91,0.0,0.0,76,0.00,CLR,,0.00,WeatherDisplay:10.37,2013-04-08 07:37:00,
2013-04-08 03:42:00,52.6,45.2,30.03,SE,127,4.6,4.6,76,0.00,CLR,,0.00,WeatherDisplay:10.37,2013-04-08 07:42:00,
2013-04-08 03:47:00,52.8,45.4,30.03,SE,129,0.0,0.0,76,0.00,CLR,,0.00,WeatherDisplay:10.37,2013-04-08 07:47:00,
2013-04-08 03:52:00,52.9,45.5,30.03,SE,129,0.0,0.0,76,0.00,CLR,,0.00,WeatherDisplay:10.37,2013-04-08 07:52:00,
2013-04-08 03:57:00,53.0,45.3,30.03,SE,128,0.0,0.0,75,0.00,CLR,,0.00,WeatherDisplay:10.37,2013-04-08 07:57:00,
2013-04-08 04:02:00,53.0,45.3,30.03,SE,128,0.0,0.0,75,0.00,CLR,,0.00,WeatherDisplay:10.37,2013-04-08 08:02:00,
2013-04-08 04:07:00,53.0,45.6,30.03,SE,128,1.2,1.2,76,0.00,CLR,,0.00,WeatherDisplay:10.37,2013-04-08 08:07:00,
2013-04-08 04:12:00,53.0,45.6,30.03,SE,128,0.0,0.0,76,0.00,CLR,,0.00,WeatherDisplay:10.37,2013-04-08 08:12:00,
2013-04-08 04:17:00,53.0,45.6,30.03,SE,128,0.0,0.0,76,0.00,CLR,,0.00,WeatherDisplay:10.37,2013-04-08 08:17:00,
2013-04-08 04:22:00,53.1,45.7,30.03,SE,128,0.0,0.0,76,0.00,CLR,,0.00,WeatherDisplay:10.37,2013-04-08 08:22:00,
2013-04-08 04:27:00,53.1,45.7,30.03,SE,128,0.0,0.1,76,0.00,CLR,,0.00,WeatherDisplay:10.37,2013-04-08 08:27:00,
2013-04-08 04:32:00,53.1,46.1,30.03,SE,128,0.0,0.0,77,0.00,CLR,,0.00,WeatherDisplay:10.37,2013-04-08 08:32:00,
2013-04-08 04:37:00,53.1,45.7,30.03,SE,128,0.0,0.0,76,0.00,CLR,,0.00,WeatherDisplay:10.37,2013-04-08 08:37:00,
2013-04-08 04:42:00,53.1,45.7,30.03,SE,128,0.0,0.0,76,0.00,CLR,,0.00,WeatherDisplay:10.37,2013-04-08 08:42:00,
2013-04-08 04:47:00,53.1,45.7,30.03,SE,127,0.0,0.0,76,0.00,CLR,,0.00,WeatherDisplay:10.37,2013-04-08 08:47:00,
2013-04-08 04:52:00,53.1,45.7,30.03,SE,127,0.0,0.0,76,0.00,CLR,,0.00,WeatherDisplay:10.37,2013-04-08 08:52:00,
2013-04-08 04:57:00,53.1,45.7,30.03,SE,127,1.2,0.0,76,0.00,CLR,,0.00,WeatherDisplay:10.37,2013-04-08 08:57:00,
2013-04-08 05:02:00,53.1,46.1,30.03,SE,127,0.0,0.0,77,0.00,CLR,,0.00,WeatherDisplay:10.37,2013-04-08 09:02:00,
2013-04-08 05:07:00,53.1,46.1,30.03,SE,127,0.0,0.0,77,0.00,CLR,,0.00,WeatherDisplay:10.37,2013-04-08 09:07:00,
2013-04-08 05:12:00,53.0,46.0,30.03,SE,127,1.2,1.2,77,0.00,CLR,,0.00,WeatherDisplay:10.37,2013-04-08 09:12:00,
2013-04-08 05:17:00,52.9,45.9,30.03,SE,127,2.3,0.0,77,0.00,CLR,,0.00,WeatherDisplay:10.37,2013-04-08 09:17:00,
2013-04-08 05:22:00,53.0,46.7,30.03,SSE,150,4.6,4.6,79,0.00,CLR,,0.00,WeatherDisplay:10.37,2013-04-08 09:22:00,
2013-04-08 05:27:00,53.6,47.9,30.03,SE,137,1.2,0.0,81,0.00,CLR,,0.00,WeatherDisplay:10.37,2013-04-08 09:27:00,
2013-04-08 05:32:00,54.3,48.3,30.03,SE,138,4.6,4.6,80,0.00,CLR,,0.00,WeatherDisplay:10.37,2013-04-08 09:32:00,
2013-04-08 05:37:00,55.0,48.3,30.03,SW,215,2.3,2.3,78,0.00,CLR,,0.00,WeatherDisplay:10.37,2013-04-08 09:37:00,
2013-04-08 05:42:00,55.5,48.8,30.03,SSE,167,4.4,4.4,78,0.00,CLR,,0.00,WeatherDisplay:10.37,2013-04-08 09:42:00,
2013-04-08 05:47:00,55.9,48.4,30.02,SSE,167,0.0,0.0,76,0.00,CLR,,0.00,WeatherDisplay:10.37,2013-04-08 09:47:00,
2013-04-08 05:52:00,56.0,48.2,30.02,SW,229,5.8,5.8,75,0.00,CLR,,0.00,WeatherDisplay:10.37,2013-04-08 09:52:00,
2013-04-08 05:57:00,55.8,47.6,30.02,SSW,196,4.6,0.0,74,0.00,CLR,,0.00,WeatherDisplay:10.37,2013-04-08 09:57:00,
2013-04-08 06:02:00,55.5,47.7,30.03,SSW,198,8.1,8.1,75,0.00,CLR,,0.00,WeatherDisplay:10.37,2013-04-08 10:02:00,
2013-04-08 06:07:00,55.2,47.4,30.02,WNW,284,1.1,1.1,75,0.00,CLR,,0.00,WeatherDisplay:10.37,2013-04-08 10:07:00,
2013-04-08 06:12:00,55.0,47.6,30.03,WNW,293,3.5,3.5,76,0.00,CLR,,0.00,WeatherDisplay:10.37,2013-04-08 10:12:00,
2013-04-08 06:17:00,54.9,47.8,30.03,NE,52,1.2,0.0,77,0.00,CLR,,0.00,WeatherDisplay:10.37,2013-04-08 10:17:00,
2013-04-08 06:22:00,54.8,48.1,30.03,NE,53,0.0,0.0,78,0.00,CLR,,0.00,WeatherDisplay:10.37,2013-04-08 10:22:00,
2013-04-08 06:27:00,54.7,48.0,30.03,NE,54,0.0,0.0,78,0.00,CLR,,0.00,WeatherDisplay:10.37,2013-04-08 10:27:00,
2013-04-08 06:32:00,54.7,48.3,30.03,NE,54,0.0,0.0,79,0.00,CLR,,0.00,WeatherDisplay:10.37,2013-04-08 10:32:00,
2013-04-08 06:38:00,54.6,47.2,30.04,NE,54,2.3,2.3,76,0.00,CLR,,0.00,WeatherDisplay:10.37,2013-04-08 10:38:00,
2013-04-08 06:43:00,54.4,47.0,30.05,NE,54,0.0,0.0,76,0.00,CLR,,0.00,WeatherDisplay:10.37,2013-04-08 10:43:00,
2013-04-08 06:48:00,54.2,47.1,30.04,NE,54,0.0,0.0,77,0.00,CLR,,0.00,WeatherDisplay:10.37,2013-04-08 10:48:00,
2013-04-08 06:53:00,54.1,47.0,30.05,NE,54,0.0,0.0,77,0.00,CLR,,0.00,WeatherDisplay:10.37,2013-04-08 10:53:00,
2013-04-08 06:58:00,54.0,47.3,30.05,NE,54,0.0,0.0,78,0.00,CLR,,0.00,WeatherDisplay:10.37,2013-04-08 10:58:00,
2013-04-08 07:03:00,53.8,46.8,30.05,NE,54,0.0,0.0,77,0.00,CLR,,0.00,WeatherDisplay:10.37,2013-04-08 11:03:00,
2013-04-08 07:08:00,53.6,46.6,30.05,NE,54,0.0,0.0,77,0.00,CLR,,0.00,WeatherDisplay:10.37,2013-04-08 11:08:00,
2013-04-08 07:13:00,53.5,46.8,30.05,NE,54,0.0,0.0,78,0.00,CLR,,0.00,WeatherDisplay:10.37,2013-04-08 11:13:00,
2013-04-08 07:18:00,53.4,46.7,30.06,NE,54,0.0,0.0,78,0.00,CLR,,0.00,WeatherDisplay:10.37,2013-04-08 11:18:00,
2013-04-08 07:23:00,53.3,46.6,30.06,NE,54,1.2,0.0,78,0.00,CLR,,0.00,WeatherDisplay:10.37,2013-04-08 11:23:00,
2013-04-08 07:28:00,53.3,47.6,30.06,NE,54,0.0,0.0,81,0.00,CLR,,0.00,WeatherDisplay:10.37,2013-04-08 11:28:00,
2013-04-08 07:33:00,53.3,47.3,30.06,NE,54,0.0,0.0,80,0.00,CLR,,0.00,WeatherDisplay:10.37,2013-04-08 11:33:00,
2013-04-08 07:38:00,53.3,47.0,30.07,NE,54,0.0,0.0,79,0.00,CLR,,0.00,WeatherDisplay:10.37,2013-04-08 11:38:00,
2013-04-08 07:43:00,53.3,47.6,30.07,NE,54,0.0,0.0,81,0.00,CLR,,0.00,WeatherDisplay:10.37,2013-04-08 11:43:00,
2013-04-08 07:48:00,53.3,47.6,30.07,NE,54,0.0,0.0,81,0.00,CLR,,0.00,WeatherDisplay:10.37,2013-04-08 11:48:00,
2013-04-08 07:53:00,53.3,47.9,30.07,NE,54,0.0,0.0,82,0.00,CLR,,0.00,WeatherDisplay:10.37,2013-04-08 11:53:00,
2013-04-08 07:58:00,53.5,47.8,30.07,NE,54,0.0,0.0,81,0.00,CLR,,0.00,WeatherDisplay:10.37,2013-04-08 11:58:00,
2013-04-08 08:03:00,53.6,48.2,30.07,NE,54,0.0,0.0,82,0.00,CLR,,0.00,WeatherDisplay:10.37,2013-04-08 12:03:00,
2013-04-08 08:08:00,53.8,48.4,30.08,NE,54,0.0,0.0,82,0.00,CLR,,0.00,WeatherDisplay:10.37,2013-04-08 12:08:00,
2013-04-08 08:13:00,54.0,48.6,30.08,NE,54,0.0,0.0,82,0.00,CLR,,0.00,WeatherDisplay:10.37,2013-04-08 12:13:00,
2013-04-08 08:18:00,54.3,48.9,30.08,NE,54,0.0,0.0,82,0.00,CLR,,0.00,WeatherDisplay:10.37,2013-04-08 12:18:00,
2013-04-08 08:23:00,54.6,49.5,30.08,SW,214,5.8,5.8,83,0.00,CLR,,0.00,WeatherDisplay:10.37,2013-04-08 12:23:00,
2013-04-08 08:28:00,55.0,49.6,30.08,SSW,213,1.2,1.2,82,0.00,CLR,,0.00,WeatherDisplay:10.37,2013-04-08 12:28:00,
2013-04-08 08:33:00,55.4,50.0,30.08,South,185,2.3,2.3,82,0.00,CLR,,0.00,WeatherDisplay:10.37,2013-04-08 12:33:00,
2013-04-08 08:38:00,55.9,50.2,30.09,SSW,206,3.5,3.5,81,0.00,CLR,,0.00,WeatherDisplay:10.37,2013-04-08 12:38:00,
2013-04-08 08:43:00,56.2,50.4,30.08,SSW,203,5.8,5.8,81,0.00,CLR,,0.00,WeatherDisplay:10.37,2013-04-08 12:43:00,
2013-04-08 08:48:00,56.5,50.4,30.08,SSW,204,4.6,4.6,80,0.00,CLR,,0.00,WeatherDisplay:10.37,2013-04-08 12:48:00,
2013-04-08 08:53:00,56.8,50.7,30.09,SW,229,3.5,3.5,80,0.00,CLR,,0.00,WeatherDisplay:10.37,2013-04-08 12:53:00,
2013-04-08 08:58:00,57.0,50.5,30.09,SW,223,1.2,0.0,79,0.00,CLR,,0.00,WeatherDisplay:10.37,2013-04-08 12:58:00,
2013-04-08 09:03:00,57.3,50.8,30.09,SW,221,1.2,1.2,79,0.00,CLR,,0.00,WeatherDisplay:10.37,2013-04-08 13:03:00,
2013-04-08 09:08:00,57.5,50.7,30.08,SW,222,0.0,0.0,78,0.00,CLR,,0.00,WeatherDisplay:10.37,2013-04-08 13:08:00,
2013-04-08 09:13:00,57.8,51.0,30.08,SW,223,0.0,0.0,78,0.00,CLR,,0.00,WeatherDisplay:10.37,2013-04-08 13:13:00,
2013-04-08 09:18:00,58.1,51.3,30.08,South,181,5.8,5.8,78,0.00,CLR,,0.00,WeatherDisplay:10.37,2013-04-08 13:18:00,
2013-04-08 09:23:00,58.4,51.6,30.08,South,182,1.2,0.0,78,0.00,CLR,,0.00,WeatherDisplay:10.37,2013-04-08 13:23:00,
2013-04-08 09:28:00,58.7,52.2,30.08,SSW,200,8.1,8.1,79,0.00,CLR,,0.00,WeatherDisplay:10.37,2013-04-08 13:28:00,
2013-04-08 09:34:00,59.1,52.6,30.08,SSW,199,10.4,10.4,79,0.00,CLR,,0.00,WeatherDisplay:10.37,2013-04-08 13:34:00,
2013-04-08 09:39:00,59.4,52.9,30.08,SSW,204,6.5,6.5,79,0.00,CLR,,0.00,WeatherDisplay:10.37,2013-04-08 13:39:00,
2013-04-08 09:44:00,59.6,53.1,30.08,SSW,206,8.1,8.1,79,0.00,CLR,,0.00,WeatherDisplay:10.37,2013-04-08 13:44:00,
2013-04-08 09:49:00,59.7,52.8,30.07,South,181,9.8,9.8,78,0.00,CLR,,0.00,WeatherDisplay:10.37,2013-04-08 13:49:00,
2013-04-08 09:54:00,59.9,53.0,30.07,South,191,9.2,9.2,78,0.00,CLR,,0.00,WeatherDisplay:10.37,2013-04-08 13:54:00,
2013-04-08 09:59:00,60.1,53.2,30.07,SW,218,13.3,13.3,78,0.00,CLR,,0.00,WeatherDisplay:10.37,2013-04-08 13:59:00,
2013-04-08 10:04:00,60.2,53.0,30.07,SW,218,1.2,1.2,77,0.00,CLR,,0.00,WeatherDisplay:10.37,2013-04-08 14:04:00,
2013-04-08 10:09:00,60.4,52.8,30.07,WSW,245,5.8,5.8,76,0.00,CLR,,0.00,WeatherDisplay:10.37,2013-04-08 14:09:00,
2013-04-08 10:14:00,60.5,52.5,30.07,SSW,212,6.9,6.9,75,0.00,CLR,,0.00,WeatherDisplay:10.37,2013-04-08 14:14:00,
2013-04-08 10:19:00,60.7,53.1,30.07,SW,220,10.4,10.7,76,0.00,CLR,,0.00,WeatherDisplay:10.37,2013-04-08 14:19:00,
2013-04-08 10:24:00,60.8,52.5,30.07,South,179,9.2,9.2,74,0.00,CLR,,0.00,WeatherDisplay:10.37,2013-04-08 14:24:00,
2013-04-08 10:29:00,60.9,52.6,30.07,SW,218,10.6,10.6,74,0.00,CLR,,0.00,WeatherDisplay:10.37,2013-04-08 14:29:00,
2013-04-08 10:34:00,61.1,52.7,30.07,South,189,8.7,8.7,74,0.00,CLR,,0.00,WeatherDisplay:10.37,2013-04-08 14:34:00,
2013-04-08 10:39:00,61.3,52.9,30.07,SSW,193,15.0,15.0,74,0.00,CLR,,0.00,WeatherDisplay:10.37,2013-04-08 14:39:00,
2013-04-08 10:44:00,61.6,52.9,30.08,WSW,240,9.2,9.2,73,0.00,CLR,,0.00,WeatherDisplay:10.37,2013-04-08 14:44:00,
2013-04-08 10:49:00,61.6,52.1,30.08,SSW,213,15.0,15.0,71,0.00,CLR,,0.00,WeatherDisplay:10.37,2013-04-08 14:49:00,
2013-04-08 10:54:00,62.2,52.7,30.08,WSW,256,15.0,15.0,71,0.00,CLR,,0.00,WeatherDisplay:10.37,2013-04-08 14:54:00,
2013-04-08 10:59:00,62.5,53.0,30.08,West,260,17.3,17.3,71,0.00,CLR,,0.00,WeatherDisplay:10.37,2013-04-08 14:59:00,
2013-04-08 11:04:00,62.8,52.5,30.08,West,260,17.3,17.3,69,0.00,CLR,,0.00,WeatherDisplay:10.37,2013-04-08 15:04:00,
2013-04-08 11:10:00,63.1,52.8,30.08,SSW,209,13.8,13.8,69,0.00,CLR,,0.00,WeatherDisplay:10.37,2013-04-08 15:10:00,
2013-04-08 11:15:00,63.4,52.2,30.07,West,272,19.6,19.6,67,0.00,CLR,,0.00,WeatherDisplay:10.37,2013-04-08 15:15:00,
2013-04-08 11:20:00,63.8,53.0,30.07,South,191,12.7,12.7,68,0.00,CLR,,0.00,WeatherDisplay:10.37,2013-04-08 15:20:00,
2013-04-08 11:25:00,64.3,52.7,30.07,WSW,237,19.6,19.6,66,0.00,CLR,,0.00,WeatherDisplay:10.37,2013-04-08 15:25:00,
2013-04-08 11:30:00,64.6,52.6,30.07,WSW,239,19.6,19.6,65,0.00,CLR,,0.00,WeatherDisplay:10.37,2013-04-08 15:30:00,
2013-04-08 11:35:00,64.9,52.4,30.07,WSW,258,18.4,18.4,64,0.00,CLR,,0.00,WeatherDisplay:10.37,2013-04-08 15:35:00,
2013-04-08 11:40:00,64.9,52.4,30.07,West,279,16.1,16.1,64,0.00,CLR,,0.00,WeatherDisplay:10.37,2013-04-08 15:40:00,
2013-04-08 11:45:00,64.9,52.4,30.07,West,262,16.1,16.1,64,0.00,CLR,,0.00,WeatherDisplay:10.37,2013-04-08 15:45:00,
2013-04-08 11:50:00,65.1,52.2,30.07,West,262,10.4,10.4,63,0.00,CLR,,0.00,WeatherDisplay:10.37,2013-04-08 15:50:00,
2013-04-08 11:55:00,65.4,51.6,30.07,West,260,10.4,10.4,61,0.00,CLR,,0.00,WeatherDisplay:10.37,2013-04-08 15:55:00,
2013-04-08 12:00:00,65.7,52.8,30.07,West,274,10.4,10.4,63,0.00,CLR,,0.00,WeatherDisplay:10.37,2013-04-08 16:00:00,
2013-04-08 12:05:00,66.2,52.8,30.07,SW,217,10.4,10.4,62,0.00,CLR,,0.00,WeatherDisplay:10.37,2013-04-08 16:05:00,
2013-04-08 12:10:00,66.8,51.5,30.06,WSW,252,13.8,13.8,58,0.00,CLR,,0.00,WeatherDisplay:10.37,2013-04-08 16:10:00,
2013-04-08 12:15:00,67.4,51.2,30.06,WSW,247,9.2,9.2,56,0.00,CLR,,0.00,WeatherDisplay:10.37,2013-04-08 16:15:00,
2013-04-08 12:20:00,67.8,51.5,30.06,West,275,13.8,13.8,56,0.00,CLR,,0.00,WeatherDisplay:10.37,2013-04-08 16:20:00,
2013-04-08 12:25:00,67.9,50.6,30.06,SW,228,17.3,17.3,54,0.00,CLR,,0.00,WeatherDisplay:10.37,2013-04-08 16:25:00,
2013-04-08 12:30:00,67.8,50.5,30.07,SW,230,18.4,18.4,54,0.00,CLR,,0.00,WeatherDisplay:10.37,2013-04-08 16:30:00,
2013-04-08 12:35:00,67.8,51.0,30.07,West,267,11.5,11.5,55,0.00,CLR,,0.00,WeatherDisplay:10.37,2013-04-08 16:35:00,
2013-04-08 12:40:00,67.9,52.1,30.07,West,274,16.1,16.1,57,0.00,CLR,,0.00,WeatherDisplay:10.37,2013-04-08 16:40:00,
2013-04-08 12:45:00,68.0,50.2,30.07,SW,226,16.1,16.1,53,0.00,CLR,,0.00,WeatherDisplay:10.37,2013-04-08 16:45:00,
2013-04-08 12:50:00,68.2,50.9,30.06,SW,214,19.6,19.6,54,0.00,CLR,,0.00,WeatherDisplay:10.37,2013-04-08 16:50:00,
2013-04-08 12:55:00,68.5,51.2,30.06,West,270,16.1,16.1,54,0.00,CLR,,0.00,WeatherDisplay:10.37,2013-04-08 16:55:00,
2013-04-08 13:00:00,68.9,51.1,30.06,SW,223,9.2,9.4,53,0.00,CLR,,0.00,WeatherDisplay:10.37,2013-04-08 17:00:00,
2013-04-08 13:05:00,69.3,49.9,30.06,South,181,12.7,12.7,50,0.00,CLR,,0.00,WeatherDisplay:10.37,2013-04-08 17:05:00,
2013-04-08 13:10:00,69.9,50.4,30.06,SW,227,23.0,23.0,50,0.00,CLR,,0.00,WeatherDisplay:10.37,2013-04-08 17:10:00,
2013-04-08 13:15:00,70.3,50.8,30.06,WNW,287,13.8,13.8,50,0.00,CLR,,0.00,WeatherDisplay:10.37,2013-04-08 17:15:00,
2013-04-08 13:20:00,70.3,50.8,30.06,WSW,237,21.9,21.9,50,0.00,CLR,,0.00,WeatherDisplay:10.37,2013-04-08 17:20:00,
2013-04-08 13:25:00,70.1,50.6,30.06,WSW,251,11.5,11.5,50,0.00,CLR,,0.00,WeatherDisplay:10.37,2013-04-08 17:25:00,
2013-04-08 13:30:00,70.2,51.2,30.05,SW,222,15.0,15.0,51,0.00,CLR,,0.00,WeatherDisplay:10.37,2013-04-08 17:30:00,
2013-04-08 13:35:00,70.3,51.3,30.05,SSW,203,16.1,16.1,51,0.00,CLR,,0.00,WeatherDisplay:10.37,2013-04-08 17:35:00,
2013-04-08 13:40:00,70.3,50.8,30.05,SW,231,17.3,17.6,50,0.00,CLR,,0.00,WeatherDisplay:10.37,2013-04-08 17:40:00,
2013-04-08 13:45:00,70.1,51.1,30.05,WSW,239,19.6,19.6,51,0.00,CLR,,0.00,WeatherDisplay:10.37,2013-04-08 17:45:00,
2013-04-08 13:50:00,70.1,50.0,30.05,WSW,257,23.0,23.0,49,0.00,CLR,,0.00,WeatherDisplay:10.37,2013-04-08 17:50:00,
2013-04-08 13:55:00,70.1,51.1,30.05,SSW,196,13.8,13.8,51,0.00,CLR,,0.00,WeatherDisplay:10.37,2013-04-08 17:55:00,
2013-04-08 14:00:00,70.4,50.9,30.04,West,263,19.6,19.6,50,0.00,CLR,,0.00,WeatherDisplay:10.37,2013-04-08 18:00:00,
2013-04-08 14:05:00,70.6,51.1,30.04,WSW,252,16.1,16.1,50,0.00,,,0.00,WeatherDisplay:10.37,2013-04-08 18:05:00,
2013-04-08 14:10:00,70.7,51.1,30.04,SW,223,24.2,24.2,50,0.00,CLR,,0.00,WeatherDisplay:10.37,2013-04-08 18:10:00,
2013-04-08 14:16:00,70.7,50.6,30.04,West,264,10.4,10.4,49,0.00,CLR,,0.00,WeatherDisplay:10.37,2013-04-08 18:16:00,
2013-04-08 14:21:00,70.8,50.1,30.04,SW,225,17.3,17.3,48,0.00,CLR,,0.00,WeatherDisplay:10.37,2013-04-08 18:21:00,
2013-04-08 14:26:00,70.9,50.8,30.04,WSW,240,15.0,15.0,49,0.00,CLR,,0.00,WeatherDisplay:10.37,2013-04-08 18:26:00,
2013-04-08 14:31:00,70.9,50.8,30.04,WSW,253,15.0,15.0,49,0.00,CLR,,0.00,WeatherDisplay:10.37,2013-04-08 18:31:00,
2013-04-08 14:36:00,71.0,49.7,30.04,West,262,18.4,18.4,47,0.00,CLR,,0.00,WeatherDisplay:10.37,2013-04-08 18:36:00,
2013-04-08 14:41:00,71.1,51.0,30.03,SW,233,18.6,18.6,49,0.00,CLR,,0.00,WeatherDisplay:10.37,2013-04-08 18:41:00,
2013-04-08 14:46:00,71.1,49.8,30.03,West,277,8.1,8.1,47,0.00,CLR,,0.00,WeatherDisplay:10.37,2013-04-08 18:46:00,
2013-04-08 14:51:00,71.3,50.6,30.04,WSW,249,19.6,19.6,48,0.00,CLR,,0.00,WeatherDisplay:10.37,2013-04-08 18:51:00,
2013-04-08 14:56:00,71.3,51.1,30.03,West,262,18.4,18.4,49,0.00,CLR,,0.00,WeatherDisplay:10.37,2013-04-08 18:56:00,
2013-04-08 15:01:00,71.3,51.1,30.03,WSW,250,16.1,16.1,49,0.00,CLR,,0.00,WeatherDisplay:10.37,2013-04-08 19:01:00,
2013-04-08 15:06:00,71.3,51.1,30.03,SW,235,11.5,12.8,49,0.00,CLR,,0.00,WeatherDisplay:10.37,2013-04-08 19:06:00,
2013-04-08 15:11:00,71.3,51.1,30.03,WSW,247,18.4,18.4,49,0.00,CLR,,0.00,WeatherDisplay:10.37,2013-04-08 19:11:00,
2013-04-08 15:16:00,71.3,51.1,30.03,SW,235,21.9,21.9,49,0.00,CLR,,0.00,WeatherDisplay:10.37,2013-04-08 19:16:00,
2013-04-08 15:21:00,71.4,51.2,30.03,WSW,254,17.3,17.3,49,0.00,CLR,,0.00,WeatherDisplay:10.37,2013-04-08 19:21:00,
2013-04-08 15:26:00,71.6,50.9,30.03,WSW,242,13.8,13.8,48,0.00,CLR,,0.00,WeatherDisplay:10.37,2013-04-08 19:26:00,
2013-04-08 15:31:00,71.6,51.4,30.02,NW,308,17.3,17.3,49,0.00,CLR,,0.00,WeatherDisplay:10.37,2013-04-08 19:31:00,
2013-04-08 15:36:00,71.7,50.4,30.02,West,264,9.2,9.2,47,0.00,CLR,,0.00,WeatherDisplay:10.37,2013-04-08 19:36:00,
2013-04-08 15:41:00,71.6,50.9,30.02,SW,236,16.1,16.1,48,0.00,CLR,,0.00,WeatherDisplay:10.37,2013-04-08 19:41:00,
2013-04-08 15:46:00,71.6,50.3,30.01,WSW,248,13.8,13.8,47,0.00,CLR,,0.00,WeatherDisplay:10.37,2013-04-08 19:46:00,
2013-04-08 15:51:00,71.6,50.3,30.01,WSW,258,19.6,19.6,47,0.00,CLR,,0.00,WeatherDisplay:10.37,2013-04-08 19:51:00,
2013-04-08 15:56:00,71.5,50.8,30.01,WSW,237,12.0,12.0,48,0.00,CLR,,0.00,WeatherDisplay:10.37,2013-04-08 19:56:00,
2013-04-08 16:01:00,71.4,49.5,30.01,West,260,17.3,17.3,46,0.00,CLR,,0.00,WeatherDisplay:10.37,2013-04-08 20:01:00,
2013-04-08 16:06:00,71.2,50.5,30.01,West,260,11.5,11.5,48,0.00,CLR,,0.00,WeatherDisplay:10.37,2013-04-08 20:06:00,
2013-04-08 16:11:00,71.1,50.4,30.01,West,273,13.8,13.8,48,0.00,CLR,,0.00,WeatherDisplay:10.37,2013-04-08 20:11:00,
2013-04-08 16:16:00,71.2,51.1,30.01,WSW,258,10.4,10.4,49,0.00,CLR,,0.00,WeatherDisplay:10.37,2013-04-08 20:16:00,
2013-04-08 16:21:00,71.2,51.6,30.01,WSW,240,11.5,11.5,50,0.00,CLR,,0.00,WeatherDisplay:10.37,2013-04-08 20:21:00,
2013-04-08 16:26:00,71.4,51.8,30.01,SW,225,17.3,17.3,50,0.00,CLR,,0.00,WeatherDisplay:10.37,2013-04-08 20:26:00,
2013-04-08 16:31:00,71.4,52.3,30.01,WSW,240,23.0,23.0,51,0.00,CLR,,0.00,WeatherDisplay:10.37,2013-04-08 20:31:00,
2013-04-08 16:36:00,71.4,51.2,30.01,West,262,15.0,15.0,49,0.00,CLR,,0.00,WeatherDisplay:10.37,2013-04-08 20:36:00,
2013-04-08 16:41:00,71.5,51.9,30.01,SSW,201,15.0,15.0,50,0.00,CLR,,0.00,WeatherDisplay:10.37,2013-04-08 20:41:00,
2013-04-08 16:46:00,71.5,51.3,30.01,WSW,245,16.1,16.1,49,0.00,CLR,,0.00,WeatherDisplay:10.37,2013-04-08 20:46:00,
2013-04-08 16:51:00,71.5,50.8,30.01,WSW,246,17.3,17.3,48,0.00,CLR,,0.00,WeatherDisplay:10.37,2013-04-08 20:51:00,
2013-04-08 16:56:00,71.5,50.8,30.01,West,262,10.4,10.4,48,0.00,CLR,,0.00,WeatherDisplay:10.37,2013-04-08 20:56:00,
2013-04-08 17:01:00,71.5,51.3,30.01,West,281,15.0,15.0,49,0.00,CLR,,0.00,WeatherDisplay:10.37,2013-04-08 21:01:00,
2013-04-08 17:06:00,71.6,50.9,30.01,West,270,11.5,11.5,48,0.00,CLR,,0.00,WeatherDisplay:10.37,2013-04-08 21:06:00,
2013-04-08 17:11:00,71.8,51.0,30.01,WSW,253,17.3,17.3,48,0.00,CLR,,0.00,WeatherDisplay:10.37,2013-04-08 21:11:00,
2013-04-08 17:17:00,71.6,50.9,30.01,WSW,258,17.3,17.3,48,0.00,CLR,,0.00,WeatherDisplay:10.37,2013-04-08 21:17:00,
2013-04-08 17:22:00,71.4,50.7,30.01,WSW,254,10.4,10.4,48,0.00,CLR,,0.00,WeatherDisplay:10.37,2013-04-08 21:22:00,
2013-04-08 17:27:00,71.2,51.1,30.01,SW,233,13.8,13.8,49,0.00,CLR,,0.00,WeatherDisplay:10.37,2013-04-08 21:27:00,
2013-04-08 17:32:00,71.0,50.9,30.01,WSW,242,13.8,14.3,49,0.00,CLR,,0.00,WeatherDisplay:10.37,2013-04-08 21:32:00,
2013-04-08 17:37:00,71.0,50.9,30.01,WSW,254,11.5,11.5,49,0.00,CLR,,0.00,WeatherDisplay:10.37,2013-04-08 21:37:00,
2013-04-08 17:42:00,71.0,50.9,30.01,SW,236,10.6,10.7,49,0.00,CLR,,0.00,WeatherDisplay:10.37,2013-04-08 21:42:00,
2013-04-08 17:47:00,71.0,51.4,30.01,West,261,21.9,21.9,50,0.00,CLR,,0.00,WeatherDisplay:10.37,2013-04-08 21:47:00,
2013-04-08 17:52:00,70.9,51.3,30.01,WNW,283,10.9,10.9,50,0.00,CLR,,0.00,WeatherDisplay:10.37,2013-04-08 21:52:00,
2013-04-08 17:57:00,70.8,50.7,30.01,WSW,258,11.5,11.8,49,0.00,CLR,,0.00,WeatherDisplay:10.37,2013-04-08 21:57:00,
2013-04-08 18:02:00,70.9,51.3,30.01,West,277,10.9,10.9,50,0.00,CLR,,0.00,WeatherDisplay:10.37,2013-04-08 22:02:00,
2013-04-08 18:07:00,71.0,50.9,30.01,SSW,202,8.1,8.1,49,0.00,CLR,,0.00,WeatherDisplay:10.37,2013-04-08 22:07:00,
2013-04-08 18:12:00,71.1,51.5,30.01,WSW,244,8.1,8.1,50,0.00,CLR,,0.00,WeatherDisplay:10.37,2013-04-08 22:12:00,
2013-04-08 18:17:00,71.3,51.7,30.02,WSW,251,13.8,13.8,50,0.00,CLR,,0.00,WeatherDisplay:10.37,2013-04-08 22:17:00,
2013-04-08 18:22:00,71.2,51.6,30.02,SW,233,15.0,15.0,50,0.00,CLR,,0.00,WeatherDisplay:10.37,2013-04-08 22:22:00,
2013-04-08 18:27:00,70.9,51.3,30.02,SW,235,12.0,12.0,50,0.00,CLR,,0.00,WeatherDisplay:10.37,2013-04-08 22:27:00,
2013-04-08 18:32:00,70.6,52.1,30.02,SW,229,6.9,6.9,52,0.00,CLR,,0.00,WeatherDisplay:10.37,2013-04-08 22:32:00,
2013-04-08 18:37:00,70.3,51.8,30.02,West,268,5.8,5.8,52,0.00,CLR,,0.00,WeatherDisplay:10.37,2013-04-08 22:37:00,
2013-04-08 18:42:00,70.1,51.1,30.02,WSW,253,5.8,5.8,51,0.00,CLR,,0.00,WeatherDisplay:10.37,2013-04-08 22:42:00,
2013-04-08 18:47:00,69.8,51.4,30.01,WSW,242,9.2,9.2,52,0.00,CLR,,0.00,WeatherDisplay:10.37,2013-04-08 22:47:00,
2013-04-08 18:52:00,69.7,51.8,30.01,SW,236,8.1,8.1,53,0.00,CLR,,0.00,WeatherDisplay:10.37,2013-04-08 22:52:00,
2013-04-08 18:57:00,69.5,51.6,30.01,SSW,211,2.3,2.3,53,0.00,CLR,,0.00,WeatherDisplay:10.37,2013-04-08 22:57:00,
2013-04-08 19:02:00,69.3,50.9,30.01,SSW,208,23.0,23.0,52,0.00,CLR,,0.00,WeatherDisplay:10.37,2013-04-08 23:02:00,
2013-04-08 19:07:00,69.1,51.2,30.02,SW,236,10.4,10.4,53,0.00,CLR,,0.00,WeatherDisplay:10.37,2013-04-08 23:07:00,
2013-04-08 19:12:00,68.8,51.0,30.01,SSW,207,10.4,10.4,53,0.00,CLR,,0.00,WeatherDisplay:10.37,2013-04-08 23:12:00,
2013-04-08 19:17:00,68.6,51.3,30.01,SW,235,3.5,3.5,54,0.00,CLR,,0.00,WeatherDisplay:10.37,2013-04-08 23:17:00,
2013-04-08 19:22:00,68.4,51.1,30.01,SW,236,8.1,8.1,54,0.00,CLR,,0.00,WeatherDisplay:10.37,2013-04-08 23:22:00,
2013-04-08 19:27:00,68.3,51.0,30.02,South,180,9.2,9.2,54,0.00,CLR,,0.00,WeatherDisplay:10.37,2013-04-08 23:27:00,
2013-04-08 19:32:00,68.1,50.8,30.02,SSW,193,3.5,3.5,54,0.00,CLR,,0.00,WeatherDisplay:10.37,2013-04-08 23:32:00,
2013-04-08 19:37:00,67.9,51.1,30.02,South,170,10.4,10.4,55,0.00,CLR,,0.00,WeatherDisplay:10.37,2013-04-08 23:37:00,
2013-04-08 19:42:00,67.7,50.9,30.02,South,184,7.6,7.6,55,0.00,CLR,,0.00,WeatherDisplay:10.37,2013-04-08 23:42:00,
2013-04-08 19:47:00,67.5,51.2,30.02,SSW,208,10.4,10.4,56,0.00,CLR,,0.00,WeatherDisplay:10.37,2013-04-08 23:47:00,
2013-04-08 19:52:00,67.3,51.1,30.02,South,188,11.5,11.5,56,0.00,CLR,,0.00,WeatherDisplay:10.37,2013-04-08 23:52:00,
2013-04-08 19:57:00,67.0,51.3,30.02,South,169,10.4,10.4,57,0.00,CLR,,0.00,WeatherDisplay:10.37,2013-04-08 23:57:00,
2013-04-08 20:02:00,66.8,51.1,30.02,SSW,200,9.8,9.8,57,0.00,CLR,,0.00,WeatherDisplay:10.37,2013-04-09 00:02:00,
2013-04-08 20:07:00,66.6,50.9,30.02,SSE,158,7.6,7.6,57,0.00,CLR,,0.00,WeatherDisplay:10.37,2013-04-09 00:07:00,
2013-04-08 20:12:00,66.4,50.7,30.02,South,191,10.4,10.4,57,0.00,CLR,,0.00,WeatherDisplay:10.37,2013-04-09 00:12:00,
2013-04-08 20:17:00,66.3,51.1,30.02,South,175,10.4,10.4,58,0.00,CLR,,0.00,WeatherDisplay:10.37,2013-04-09 00:17:00,
2013-04-08 20:22:00,66.1,50.9,30.02,South,187,10.4,10.4,58,0.00,CLR,,0.00,WeatherDisplay:10.37,2013-04-09 00:22:00,
2013-04-08 20:27:00,65.9,50.7,30.03,SSE,157,10.4,10.4,58,0.00,CLR,,0.00,WeatherDisplay:10.37,2013-04-09 00:27:00,
2013-04-08 20:32:00,65.8,51.1,30.03,South,177,6.5,6.5,59,0.00,CLR,,0.00,WeatherDisplay:10.37,2013-04-09 00:32:00,
2013-04-08 20:37:00,65.7,51.0,30.03,SSW,200,9.2,9.2,59,0.00,CLR,,0.00,WeatherDisplay:10.37,2013-04-09 00:37:00,
2013-04-08 20:42:00,65.5,50.8,30.03,South,180,11.5,11.5,59,0.00,CLR,,0.00,WeatherDisplay:10.37,2013-04-09 00:42:00,
2013-04-08 20:47:00,65.4,51.1,30.03,South,191,15.0,15.0,60,0.00,CLR,,0.00,WeatherDisplay:10.37,2013-04-09 00:47:00,
2013-04-08 20:52:00,65.2,50.5,30.03,South,183,10.4,10.4,59,0.00,CLR,,0.00,WeatherDisplay:10.37,2013-04-09 00:52:00,
2013-04-08 20:57:00,65.1,50.9,30.03,SSW,203,10.9,10.9,60,0.00,CLR,,0.00,WeatherDisplay:10.37,2013-04-09 00:57:00,
2013-04-08 21:02:00,65.0,51.2,30.03,South,189,9.2,9.2,61,0.00,CLR,,0.00,WeatherDisplay:10.37,2013-04-09 01:02:00,
2013-04-08 21:07:00,64.9,51.1,30.04,SSW,208,11.5,11.5,61,0.00,CLR,,0.00,WeatherDisplay:10.37,2013-04-09 01:07:00,
2013-04-08 21:12:00,64.8,51.0,30.04,SSW,194,9.8,9.8,61,0.00,CLR,,0.00,WeatherDisplay:10.37,2013-04-09 01:12:00,
2013-04-08 21:17:00,64.6,51.3,30.04,SSW,198,13.8,13.8,62,0.00,CLR,,0.00,WeatherDisplay:10.37,2013-04-09 01:17:00,
2013-04-08 21:22:00,64.5,51.2,30.04,SSW,207,12.7,12.7,62,0.00,CLR,,0.00,WeatherDisplay:10.37,2013-04-09 01:22:00,
2013-04-08 21:27:00,64.4,51.1,30.04,SSW,198,18.4,18.4,62,0.00,CLR,,0.00,WeatherDisplay:10.37,2013-04-09 01:27:00,
2013-04-08 21:32:00,64.3,51.0,30.04,SSW,202,15.0,15.0,62,0.00,CLR,,0.00,WeatherDisplay:10.37,2013-04-09 01:32:00,
2013-04-08 21:37:00,64.3,51.0,30.04,South,185,11.5,11.5,62,0.00,CLR,,0.00,WeatherDisplay:10.37,2013-04-09 01:37:00,
2013-04-08 21:42:00,64.2,51.3,30.04,SSW,213,10.4,11.6,63,0.00,CLR,,0.00,WeatherDisplay:10.37,2013-04-09 01:42:00,
2013-04-08 21:47:00,64.1,51.2,30.05,SSW,204,11.5,11.5,63,0.00,CLR,,0.00,WeatherDisplay:10.37,2013-04-09 01:47:00,
2013-04-08 21:52:00,64.0,51.1,30.05,SSW,208,8.1,8.1,63,0.00,CLR,,0.00,WeatherDisplay:10.37,2013-04-09 01:52:00,
2013-04-08 21:57:00,64.0,51.1,30.05,SSW,204,10.9,10.9,63,0.00,CLR,,0.00,WeatherDisplay:10.37,2013-04-09 01:57:00,
2013-04-08 22:02:00,63.9,51.5,30.05,SW,215,12.0,12.0,64,0.00,CLR,,0.00,WeatherDisplay:10.37,2013-04-09 02:02:00,
2013-04-08 22:08:00,63.8,51.4,30.05,SSW,212,10.4,10.4,64,0.00,CLR,,0.00,WeatherDisplay:10.37,2013-04-09 02:08:00,
2013-04-08 22:12:00,63.8,51.4,30.05,South,189,10.4,10.4,64,0.00,CLR,,0.00,WeatherDisplay:10.37,2013-04-09 02:12:00,
2013-04-08 22:17:00,63.7,51.3,30.05,SSW,197,9.2,9.2,64,0.00,CLR,,0.00,WeatherDisplay:10.37,2013-04-09 02:17:00,
2013-04-08 22:23:00,63.7,51.3,30.05,SSW,205,9.2,9.2,64,0.00,CLR,,0.00,WeatherDisplay:10.37,2013-04-09 02:23:00,
2013-04-08 22:28:00,63.6,51.2,30.05,SSW,208,13.8,13.8,64,0.00,CLR,,0.00,WeatherDisplay:10.37,2013-04-09 02:28:00,
2013-04-08 22:33:00,63.5,51.5,30.05,SW,226,15.0,15.0,65,0.00,CLR,,0.00,WeatherDisplay:10.37,2013-04-09 02:33:00,
2013-04-08 22:38:00,63.5,51.5,30.05,South,185,8.1,8.1,65,0.00,CLR,,0.00,WeatherDisplay:10.37,2013-04-09 02:38:00,
2013-04-08 22:43:00,63.4,51.8,30.05,SSW,213,6.9,6.9,66,0.00,CLR,,0.00,WeatherDisplay:10.37,2013-04-09 02:43:00,
2013-04-08 22:48:00,63.3,51.7,30.05,South,188,5.8,5.8,66,0.00,CLR,,0.00,WeatherDisplay:10.37,2013-04-09 02:48:00,
2013-04-08 22:53:00,63.3,51.7,30.05,SSW,202,10.4,10.4,66,0.00,CLR,,0.00,WeatherDisplay:10.37,2013-04-09 02:53:00,
2013-04-08 22:58:00,63.2,51.6,30.05,SW,218,3.5,3.5,66,0.00,CLR,,0.00,WeatherDisplay:10.37,2013-04-09 02:58:00,
2013-04-08 23:03:00,63.1,51.6,30.05,SSW,196,3.5,3.5,66,0.00,CLR,,0.00,WeatherDisplay:10.37,2013-04-09 03:03:00,
2013-04-08 23:08:00,63.1,51.6,30.05,South,180,10.4,10.4,66,0.00,CLR,,0.00,WeatherDisplay:10.37,2013-04-09 03:08:00,
2013-04-08 23:13:00,63.2,52.1,30.05,SSE,164,11.5,11.5,67,0.00,CLR,,0.00,WeatherDisplay:10.37,2013-04-09 03:13:00,
2013-04-08 23:18:00,63.2,51.6,30.05,SSW,205,11.5,11.5,66,0.00,CLR,,0.00,WeatherDisplay:10.37,2013-04-09 03:18:00,
2013-04-08 23:23:00,63.2,52.1,30.05,SSW,195,8.1,8.1,67,0.00,CLR,,0.00,WeatherDisplay:10.37,2013-04-09 03:23:00,
2013-04-08 23:28:00,63.2,52.1,30.05,South,189,6.9,9.0,67,0.00,CLR,,0.00,WeatherDisplay:10.37,2013-04-09 03:28:00,
2013-04-08 23:33:00,63.3,52.2,30.05,South,191,9.2,9.2,67,0.00,CLR,,0.00,WeatherDisplay:10.37,2013-04-09 03:33:00,
2013-04-08 23:38:00,63.3,52.2,30.05,South,179,10.4,10.4,67,0.00,CLR,,0.00,WeatherDisplay:10.37,2013-04-09 03:38:00,
2013-04-08 23:43:00,63.1,51.6,30.05,South,185,2.3,0.0,66,0.00,CLR,,0.00,WeatherDisplay:10.37,2013-04-09 03:43:00,
2013-04-08 23:48:00,62.9,51.4,30.05,SSE,166,1.1,1.1,66,0.00,CLR,,0.00,WeatherDisplay:10.37,2013-04-09 03:48:00,
2013-04-08 23:53:00,62.5,51.0,30.05,North,9,0.0,0.0,66,0.00,CLR,,0.00,WeatherDisplay:10.37,2013-04-09 03:53:00,
2013-04-08 23:58:00,62.2,51.1,30.05,North,9,0.0,0.0,67,0.00,CLR,,0.00,WeatherDisplay:10.37,2013-04-09 03:58:00,